PACZ

Details ICAO PACZ (CZF)
Name CAPE ROMANZOF LRRS
Region USA (Alaska)
Timezone America/Nome (UTC-9.0)
Plans Departing 1
Arriving 3
Stats Elevation 457 ft / 139 m (AMSL)
Location 61.780138° -166.038756°
Runways 1
Magnetic Variation 9.629° E
Sunrise 2017-12-14 20:20:48 UTC / 2017-12-14 11:20:48 Local
Sunset 2017-12-15 01:40:06 UTC / 2017-12-14 16:40:06 Local
Advertisement - Login to hide

Runways

ID Width Length Bearing (true) Bearing (mag) Surface Threshold Offset Overrun Length
02 135 ft / 41 m 3,922 ft / 1,196 m 36.78° 27.15° Gravel 0 ft / 0 m 0 ft / 0 m
20 135 ft / 41 m 3,922 ft / 1,196 m 216.79° 207.16° Gravel 0 ft / 0 m 0 ft / 0 m

Map

Weather


0- 5 10 15 20 25 30 35+ Temperature / ° C

Clouds and Precipitation
Forecast for 2017-12-15 06:00 UTC. Updated an hour ago

Ground ~20,000 ft ~40,000 ft Winds

METAR

PACZ 150155Z AUTO 08004KT 10SM CLR M06/M12 A2949

TAF

Not found

Frequencies

Tower 126.20 MHz INFO
Warning: Do not use this data for real-world aviation or navigation. No guarantee of current accuracy is given.